sensor_id;sensor_type;location;lat;lon;timestamp;P1;durP1;ratioP1;P2;durP2;ratioP2
55655;SDS011;41530;52.382;5.270;2022-10-19T00:01:09;3.42;;;2.20;;
55655;SDS011;41530;52.382;5.270;2022-10-19T00:03:39;3.08;;;2.10;;
55655;SDS011;41530;52.382;5.270;2022-10-19T00:06:13;4.00;;;2.38;;
55655;SDS011;41530;52.382;5.270;2022-10-19T00:08:51;3.30;;;2.20;;
55655;SDS011;41530;52.382;5.270;2022-10-19T00:11:19;4.60;;;1.83;;
55655;SDS011;41530;52.382;5.270;2022-10-19T00:13:48;3.53;;;2.03;;
55655;SDS011;41530;52.382;5.270;2022-10-19T00:16:16;3.10;;;2.10;;
55655;SDS011;41530;52.382;5.270;2022-10-19T00:18:43;6.05;;;1.98;;
55655;SDS011;41530;52.382;5.270;2022-10-19T00:21:12;4.63;;;2.05;;
55655;SDS011;41530;52.382;5.270;2022-10-19T00:23:40;3.70;;;2.40;;
55655;SDS011;41530;52.382;5.270;2022-10-19T00:26:07;3.47;;;2.00;;
55655;SDS011;41530;52.382;5.270;2022-10-19T00:28:34;4.15;;;1.92;;
55655;SDS011;41530;52.382;5.270;2022-10-19T00:31:03;3.13;;;1.75;;
55655;SDS011;41530;52.382;5.270;2022-10-19T00:33:31;4.10;;;1.90;;
55655;SDS011;41530;52.382;5.270;2022-10-19T00:36:00;3.58;;;1.88;;
55655;SDS011;41530;52.382;5.270;2022-10-19T00:38:27;2.60;;;1.80;;
55655;SDS011;41530;52.382;5.270;2022-10-19T00:40:54;3.28;;;1.88;;
55655;SDS011;41530;52.382;5.270;2022-10-19T00:43:25;6.63;;;1.90;;
55655;SDS011;41530;52.382;5.270;2022-10-19T00:45:55;3.72;;;2.20;;
55655;SDS011;41530;52.382;5.270;2022-10-19T00:48:24;4.18;;;1.80;;
55655;SDS011;41530;52.382;5.270;2022-10-19T00:50:54;2.75;;;1.80;;
55655;SDS011;41530;52.382;5.270;2022-10-19T00:53:23;4.85;;;1.55;;
55655;SDS011;41530;52.382;5.270;2022-10-19T00:55:52;2.38;;;1.58;;
55655;SDS011;41530;52.382;5.270;2022-10-19T00:58:19;2.03;;;1.50;;
55655;SDS011;41530;52.382;5.270;2022-10-19T01:00:46;2.13;;;1.60;;
55655;SDS011;41530;52.382;5.270;2022-10-19T01:03:13;4.90;;;1.60;;
55655;SDS011;41530;52.382;5.270;2022-10-19T01:05:40;2.90;;;1.50;;
55655;SDS011;41530;52.382;5.270;2022-10-19T01:08:07;2.42;;;1.48;;
55655;SDS011;41530;52.382;5.270;2022-10-19T01:10:51;1.70;;;1.40;;
55655;SDS011;41530;52.382;5.270;2022-10-19T01:16:49;2.80;;;1.33;;
55655;SDS011;41530;52.382;5.270;2022-10-19T01:25:23;1.77;;;1.05;;
55655;SDS011;41530;52.382;5.270;2022-10-19T01:31:20;4.43;;;1.52;;
55655;SDS011;41530;52.382;5.270;2022-10-19T01:34:00;3.25;;;1.40;;
55655;SDS011;41530;52.382;5.270;2022-10-19T01:36:39;2.30;;;1.20;;
55655;SDS011;41530;52.382;5.270;2022-10-19T01:39:24;2.05;;;1.40;;
55655;SDS011;41530;52.382;5.270;2022-10-19T01:42:03;1.77;;;1.10;;
55655;SDS011;41530;52.382;5.270;2022-10-19T01:45:03;3.92;;;1.23;;
55655;SDS011;41530;52.382;5.270;2022-10-19T01:47:45;3.25;;;1.20;;
55655;SDS011;41530;52.382;5.270;2022-10-19T01:50:20;4.20;;;1.13;;
55655;SDS011;41530;52.382;5.270;2022-10-19T01:52:56;2.22;;;1.27;;
55655;SDS011;41530;52.382;5.270;2022-10-19T01:55:24;4.47;;;1.25;;
55655;SDS011;41530;52.382;5.270;2022-10-19T01:57:54;3.08;;;1.17;;
55655;SDS011;41530;52.382;5.270;2022-10-19T02:00:24;2.33;;;1.02;;
55655;SDS011;41530;52.382;5.270;2022-10-19T02:02:53;3.17;;;1.20;;
55655;SDS011;41530;52.382;5.270;2022-10-19T02:05:22;1.80;;;1.10;;
55655;SDS011;41530;52.382;5.270;2022-10-19T02:08:00;4.38;;;1.35;;
55655;SDS011;41530;52.382;5.270;2022-10-19T02:10:31;2.05;;;1.25;;
55655;SDS011;41530;52.382;5.270;2022-10-19T02:13:02;1.88;;;1.00;;
55655;SDS011;41530;52.382;5.270;2022-10-19T02:15:30;1.27;;;0.93;;
55655;SDS011;41530;52.382;5.270;2022-10-19T02:18:00;2.67;;;1.27;;
55655;SDS011;41530;52.382;5.270;2022-10-19T02:20:28;1.83;;;0.93;;
55655;SDS011;41530;52.382;5.270;2022-10-19T02:22:55;1.25;;;0.98;;
55655;SDS011;41530;52.382;5.270;2022-10-19T02:25:25;0.95;;;0.77;;
55655;SDS011;41530;52.382;5.270;2022-10-19T02:27:52;2.42;;;1.05;;
55655;SDS011;41530;52.382;5.270;2022-10-19T02:30:18;4.78;;;1.08;;
55655;SDS011;41530;52.382;5.270;2022-10-19T02:32:48;2.92;;;1.33;;
55655;SDS011;41530;52.382;5.270;2022-10-19T02:35:15;1.65;;;0.80;;
55655;SDS011;41530;52.382;5.270;2022-10-19T02:37:42;1.80;;;1.05;;
55655;SDS011;41530;52.382;5.270;2022-10-19T02:40:09;2.28;;;0.95;;
55655;SDS011;41530;52.382;5.270;2022-10-19T02:42:54;1.00;;;0.90;;
55655;SDS011;41530;52.382;5.270;2022-10-19T02:45:27;2.30;;;1.02;;
55655;SDS011;41530;52.382;5.270;2022-10-19T02:47:57;1.45;;;0.90;;
55655;SDS011;41530;52.382;5.270;2022-10-19T02:50:28;1.17;;;0.85;;
55655;SDS011;41530;52.382;5.270;2022-10-19T02:52:56;1.92;;;0.88;;
55655;SDS011;41530;52.382;5.270;2022-10-19T02:55:24;1.73;;;0.90;;
55655;SDS011;41530;52.382;5.270;2022-10-19T02:57:50;1.38;;;0.80;;
55655;SDS011;41530;52.382;5.270;2022-10-19T03:00:17;1.88;;;0.90;;
55655;SDS011;41530;52.382;5.270;2022-10-19T03:02:44;0.75;;;0.70;;
55655;SDS011;41530;52.382;5.270;2022-10-19T03:05:24;2.80;;;1.00;;
55655;SDS011;41530;52.382;5.270;2022-10-19T03:07:51;1.60;;;0.80;;
55655;SDS011;41530;52.382;5.270;2022-10-19T03:10:18;1.75;;;0.90;;
55655;SDS011;41530;52.382;5.270;2022-10-19T03:12:47;1.40;;;0.77;;
55655;SDS011;41530;52.382;5.270;2022-10-19T03:15:14;2.55;;;0.98;;
55655;SDS011;41530;52.382;5.270;2022-10-19T03:17:42;1.08;;;0.70;;
55655;SDS011;41530;52.382;5.270;2022-10-19T03:20:09;2.47;;;0.90;;
55655;SDS011;41530;52.382;5.270;2022-10-19T03:22:36;3.38;;;0.80;;
55655;SDS011;41530;52.382;5.270;2022-10-19T03:25:03;1.13;;;0.70;;
55655;SDS011;41530;52.382;5.270;2022-10-19T03:27:30;1.40;;;0.90;;
55655;SDS011;41530;52.382;5.270;2022-10-19T03:29:57;1.25;;;0.85;;
55655;SDS011;41530;52.382;5.270;2022-10-19T03:32:24;1.13;;;0.77;;
55655;SDS011;41530;52.382;5.270;2022-10-19T03:34:50;1.50;;;0.80;;
55655;SDS011;41530;52.382;5.270;2022-10-19T03:37:17;1.08;;;0.77;;
55655;SDS011;41530;52.382;5.270;2022-10-19T03:39:44;1.13;;;0.50;;
55655;SDS011;41530;52.382;5.270;2022-10-19T03:42:12;0.85;;;0.60;;
55655;SDS011;41530;52.382;5.270;2022-10-19T03:44:38;0.85;;;0.60;;
55655;SDS011;41530;52.382;5.270;2022-10-19T03:47:08;1.00;;;0.70;;
55655;SDS011;41530;52.382;5.270;2022-10-19T03:49:34;1.92;;;0.73;;
55655;SDS011;41530;52.382;5.270;2022-10-19T03:52:05;1.52;;;0.60;;
55655;SDS011;41530;52.382;5.270;2022-10-19T03:54:31;1.20;;;0.55;;
55655;SDS011;41530;52.382;5.270;2022-10-19T03:56:58;2.15;;;0.70;;
55655;SDS011;41530;52.382;5.270;2022-10-19T03:59:25;1.15;;;0.65;;
55655;SDS011;41530;52.382;5.270;2022-10-19T04:01:51;0.95;;;0.65;;
55655;SDS011;41530;52.382;5.270;2022-10-19T04:04:18;0.98;;;0.70;;
55655;SDS011;41530;52.382;5.270;2022-10-19T04:06:46;1.90;;;0.50;;
55655;SDS011;41530;52.382;5.270;2022-10-19T04:09:16;1.17;;;0.70;;
55655;SDS011;41530;52.382;5.270;2022-10-19T04:11:44;4.82;;;0.80;;
55655;SDS011;41530;52.382;5.270;2022-10-19T04:14:12;0.63;;;0.60;;
55655;SDS011;41530;52.382;5.270;2022-10-19T04:16:58;1.50;;;0.60;;
55655;SDS011;41530;52.382;5.270;2022-10-19T04:19:25;0.70;;;0.55;;
55655;SDS011;41530;52.382;5.270;2022-10-19T04:21:52;1.23;;;0.63;;
55655;SDS011;41530;52.382;5.270;2022-10-19T04:24:18;3.35;;;0.60;;
55655;SDS011;41530;52.382;5.270;2022-10-19T04:26:49;2.45;;;0.68;;
55655;SDS011;41530;52.382;5.270;2022-10-19T04:29:19;0.80;;;0.60;;
55655;SDS011;41530;52.382;5.270;2022-10-19T04:31:51;1.27;;;0.63;;
55655;SDS011;41530;52.382;5.270;2022-10-19T04:34:18;0.88;;;0.40;;
55655;SDS011;41530;52.382;5.270;2022-10-19T04:36:45;2.40;;;0.80;;
55655;SDS011;41530;52.382;5.270;2022-10-19T04:39:12;0.90;;;0.50;;
55655;SDS011;41530;52.382;5.270;2022-10-19T04:41:39;1.40;;;0.70;;
55655;SDS011;41530;52.382;5.270;2022-10-19T04:44:06;0.88;;;0.52;;
55655;SDS011;41530;52.382;5.270;2022-10-19T04:46:33;1.15;;;0.60;;
55655;SDS011;41530;52.382;5.270;2022-10-19T04:49:01;0.80;;;0.50;;
55655;SDS011;41530;52.382;5.270;2022-10-19T04:51:29;0.85;;;0.70;;
55655;SDS011;41530;52.382;5.270;2022-10-19T04:53:56;1.42;;;0.75;;
55655;SDS011;41530;52.382;5.270;2022-10-19T04:56:25;0.85;;;0.47;;
55655;SDS011;41530;52.382;5.270;2022-10-19T04:58:53;1.52;;;0.60;;
55655;SDS011;41530;52.382;5.270;2022-10-19T05:01:22;1.50;;;0.60;;
55655;SDS011;41530;52.382;5.270;2022-10-19T05:03:53;0.52;;;0.50;;
55655;SDS011;41530;52.382;5.270;2022-10-19T05:06:22;1.73;;;0.60;;
55655;SDS011;41530;52.382;5.270;2022-10-19T05:08:49;1.00;;;0.52;;
55655;SDS011;41530;52.382;5.270;2022-10-19T05:11:17;1.10;;;0.70;;
55655;SDS011;41530;52.382;5.270;2022-10-19T05:13:44;0.73;;;0.63;;
55655;SDS011;41530;52.382;5.270;2022-10-19T05:16:12;1.67;;;0.55;;
55655;SDS011;41530;52.382;5.270;2022-10-19T05:18:41;0.77;;;0.50;;
55655;SDS011;41530;52.382;5.270;2022-10-19T05:21:11;2.80;;;1.02;;
55655;SDS011;41530;52.382;5.270;2022-10-19T05:23:41;1.00;;;0.57;;
55655;SDS011;41530;52.382;5.270;2022-10-19T05:26:10;0.73;;;0.50;;
55655;SDS011;41530;52.382;5.270;2022-10-19T05:28:37;1.40;;;0.70;;
55655;SDS011;41530;52.382;5.270;2022-10-19T05:31:04;1.58;;;0.60;;
55655;SDS011;41530;52.382;5.270;2022-10-19T05:33:32;1.25;;;0.40;;
55655;SDS011;41530;52.382;5.270;2022-10-19T05:36:08;1.77;;;0.60;;
55655;SDS011;41530;52.382;5.270;2022-10-19T05:38:41;0.82;;;0.50;;
55655;SDS011;41530;52.382;5.270;2022-10-19T05:41:08;1.20;;;0.52;;
55655;SDS011;41530;52.382;5.270;2022-10-19T05:43:35;2.58;;;0.60;;
55655;SDS011;41530;52.382;5.270;2022-10-19T05:46:09;1.35;;;0.70;;
55655;SDS011;41530;52.382;5.270;2022-10-19T05:48:38;3.22;;;0.60;;
55655;SDS011;41530;52.382;5.270;2022-10-19T05:51:09;1.02;;;0.50;;
55655;SDS011;41530;52.382;5.270;2022-10-19T05:53:41;3.63;;;0.70;;
55655;SDS011;41530;52.382;5.270;2022-10-19T05:56:10;2.00;;;0.93;;
55655;SDS011;41530;52.382;5.270;2022-10-19T05:58:39;1.92;;;0.90;;
55655;SDS011;41530;52.382;5.270;2022-10-19T06:01:06;3.28;;;0.80;;
55655;SDS011;41530;52.382;5.270;2022-10-19T06:03:34;3.92;;;0.75;;
55655;SDS011;41530;52.382;5.270;2022-10-19T06:06:05;1.90;;;0.80;;
55655;SDS011;41530;52.382;5.270;2022-10-19T06:08:33;4.85;;;0.70;;
55655;SDS011;41530;52.382;5.270;2022-10-19T06:13:44;1.35;;;0.70;;
55655;SDS011;41530;52.382;5.270;2022-10-19T06:16:13;2.28;;;0.60;;
55655;SDS011;41530;52.382;5.270;2022-10-19T06:18:41;4.55;;;0.70;;
55655;SDS011;41530;52.382;5.270;2022-10-19T06:21:12;1.08;;;0.60;;
55655;SDS011;41530;52.382;5.270;2022-10-19T06:23:41;1.83;;;0.80;;
55655;SDS011;41530;52.382;5.270;2022-10-19T06:26:11;1.10;;;0.77;;
55655;SDS011;41530;52.382;5.270;2022-10-19T06:28:40;0.50;;;0.50;;
55655;SDS011;41530;52.382;5.270;2022-10-19T06:31:11;1.73;;;0.68;;
55655;SDS011;41530;52.382;5.270;2022-10-19T06:33:40;1.48;;;0.60;;
55655;SDS011;41530;52.382;5.270;2022-10-19T06:38:40;1.52;;;0.50;;
55655;SDS011;41530;52.382;5.270;2022-10-19T06:41:08;2.97;;;0.52;;
55655;SDS011;41530;52.382;5.270;2022-10-19T06:43:36;1.55;;;0.70;;
55655;SDS011;41530;52.382;5.270;2022-10-19T06:46:07;3.55;;;0.70;;
55655;SDS011;41530;52.382;5.270;2022-10-19T06:48:37;2.28;;;0.70;;
55655;SDS011;41530;52.382;5.270;2022-10-19T06:51:06;1.95;;;1.10;;
55655;SDS011;41530;52.382;5.270;2022-10-19T06:53:34;2.50;;;0.68;;
55655;SDS011;41530;52.382;5.270;2022-10-19T06:56:02;1.55;;;0.70;;
55655;SDS011;41530;52.382;5.270;2022-10-19T06:58:33;2.00;;;0.65;;
55655;SDS011;41530;52.382;5.270;2022-10-19T07:01:01;1.48;;;0.95;;
55655;SDS011;41530;52.382;5.270;2022-10-19T07:03:28;5.43;;;0.90;;
55655;SDS011;41530;52.382;5.270;2022-10-19T07:05:56;7.47;;;1.00;;
55655;SDS011;41530;52.382;5.270;2022-10-19T07:08:25;1.25;;;0.85;;
55655;SDS011;41530;52.382;5.270;2022-10-19T07:10:53;1.60;;;1.00;;
55655;SDS011;41530;52.382;5.270;2022-10-19T07:13:22;1.65;;;1.02;;
55655;SDS011;41530;52.382;5.270;2022-10-19T07:15:49;1.33;;;0.90;;
55655;SDS011;41530;52.382;5.270;2022-10-19T07:18:27;5.60;;;1.00;;
55655;SDS011;41530;52.382;5.270;2022-10-19T07:21:04;2.10;;;0.80;;
55655;SDS011;41530;52.382;5.270;2022-10-19T07:23:53;2.22;;;1.00;;
55655;SDS011;41530;52.382;5.270;2022-10-19T07:26:26;4.45;;;1.10;;
55655;SDS011;41530;52.382;5.270;2022-10-19T07:29:06;1.33;;;0.82;;
55655;SDS011;41530;52.382;5.270;2022-10-19T07:31:46;1.00;;;0.70;;
55655;SDS011;41530;52.382;5.270;2022-10-19T07:34:15;1.83;;;0.90;;
55655;SDS011;41530;52.382;5.270;2022-10-19T07:36:46;1.15;;;0.77;;
55655;SDS011;41530;52.382;5.270;2022-10-19T07:39:18;1.92;;;0.93;;
55655;SDS011;41530;52.382;5.270;2022-10-19T07:41:45;1.67;;;0.82;;
55655;SDS011;41530;52.382;5.270;2022-10-19T07:44:15;1.45;;;0.80;;
55655;SDS011;41530;52.382;5.270;2022-10-19T07:46:49;2.70;;;0.80;;
55655;SDS011;41530;52.382;5.270;2022-10-19T07:49:18;1.60;;;1.00;;
55655;SDS011;41530;52.382;5.270;2022-10-19T07:52:08;1.52;;;0.90;;
55655;SDS011;41530;52.382;5.270;2022-10-19T07:54:35;1.08;;;0.88;;
55655;SDS011;41530;52.382;5.270;2022-10-19T07:57:06;1.50;;;0.65;;
55655;SDS011;41530;52.382;5.270;2022-10-19T07:59:38;0.90;;;0.73;;
55655;SDS011;41530;52.382;5.270;2022-10-19T08:02:12;2.88;;;0.80;;
55655;SDS011;41530;52.382;5.270;2022-10-19T08:04:43;2.92;;;0.88;;
55655;SDS011;41530;52.382;5.270;2022-10-19T08:07:31;1.45;;;0.73;;
55655;SDS011;41530;52.382;5.270;2022-10-19T08:09:59;1.60;;;0.85;;
55655;SDS011;41530;52.382;5.270;2022-10-19T08:12:29;0.82;;;0.77;;
55655;SDS011;41530;52.382;5.270;2022-10-19T08:15:23;2.80;;;0.60;;
55655;SDS011;41530;52.382;5.270;2022-10-19T08:17:58;2.95;;;0.77;;
55655;SDS011;41530;52.382;5.270;2022-10-19T08:20:25;0.93;;;0.60;;
55655;SDS011;41530;52.382;5.270;2022-10-19T08:23:00;1.48;;;0.70;;
55655;SDS011;41530;52.382;5.270;2022-10-19T08:25:33;2.53;;;0.77;;
55655;SDS011;41530;52.382;5.270;2022-10-19T08:28:28;1.60;;;0.70;;
55655;SDS011;41530;52.382;5.270;2022-10-19T08:31:08;1.23;;;0.50;;
55655;SDS011;41530;52.382;5.270;2022-10-19T08:33:44;1.27;;;0.65;;
55655;SDS011;41530;52.382;5.270;2022-10-19T08:36:20;2.50;;;0.63;;
55655;SDS011;41530;52.382;5.270;2022-10-19T08:38:58;2.97;;;0.82;;
55655;SDS011;41530;52.382;5.270;2022-10-19T08:44:37;1.38;;;0.50;;
55655;SDS011;41530;52.382;5.270;2022-10-19T08:47:21;1.55;;;0.80;;
55655;SDS011;41530;52.382;5.270;2022-10-19T08:49:56;2.28;;;0.70;;
55655;SDS011;41530;52.382;5.270;2022-10-19T08:52:33;0.93;;;0.52;;
55655;SDS011;41530;52.382;5.270;2022-10-19T08:55:14;1.08;;;0.73;;
55655;SDS011;41530;52.382;5.270;2022-10-19T09:01:02;0.80;;;0.60;;
55655;SDS011;41530;52.382;5.270;2022-10-19T09:04:21;1.40;;;0.60;;
55655;SDS011;41530;52.382;5.270;2022-10-19T09:09:45;1.58;;;0.80;;
55655;SDS011;41530;52.382;5.270;2022-10-19T09:12:19;1.55;;;0.60;;
55655;SDS011;41530;52.382;5.270;2022-10-19T09:15:03;1.38;;;0.50;;
55655;SDS011;41530;52.382;5.270;2022-10-19T09:17:46;1.08;;;0.50;;
55655;SDS011;41530;52.382;5.270;2022-10-19T09:20:17;1.33;;;0.60;;
55655;SDS011;41530;52.382;5.270;2022-10-19T09:22:50;2.00;;;0.73;;
55655;SDS011;41530;52.382;5.270;2022-10-19T09:25:27;1.95;;;0.40;;
55655;SDS011;41530;52.382;5.270;2022-10-19T09:28:13;2.22;;;0.40;;
55655;SDS011;41530;52.382;5.270;2022-10-19T09:30:44;1.05;;;0.50;;
55655;SDS011;41530;52.382;5.270;2022-10-19T09:33:19;1.35;;;0.57;;
55655;SDS011;41530;52.382;5.270;2022-10-19T09:35:54;0.73;;;0.43;;
55655;SDS011;41530;52.382;5.270;2022-10-19T09:38:26;0.60;;;0.50;;
55655;SDS011;41530;52.382;5.270;2022-10-19T09:40:56;1.05;;;0.50;;
55655;SDS011;41530;52.382;5.270;2022-10-19T09:43:26;0.70;;;0.40;;
55655;SDS011;41530;52.382;5.270;2022-10-19T09:45:57;3.53;;;0.52;;
55655;SDS011;41530;52.382;5.270;2022-10-19T09:48:49;1.25;;;0.60;;
55655;SDS011;41530;52.382;5.270;2022-10-19T09:51:21;2.13;;;0.50;;
55655;SDS011;41530;52.382;5.270;2022-10-19T09:53:50;1.50;;;0.47;;
55655;SDS011;41530;52.382;5.270;2022-10-19T09:56:22;1.35;;;0.60;;
55655;SDS011;41530;52.382;5.270;2022-10-19T09:58:58;0.80;;;0.50;;
55655;SDS011;41530;52.382;5.270;2022-10-19T10:01:29;1.60;;;0.57;;
55655;SDS011;41530;52.382;5.270;2022-10-19T10:04:09;3.35;;;0.57;;
55655;SDS011;41530;52.382;5.270;2022-10-19T10:06:55;2.00;;;0.40;;
55655;SDS011;41530;52.382;5.270;2022-10-19T10:09:27;2.00;;;0.65;;
55655;SDS011;41530;52.382;5.270;2022-10-19T10:12:05;2.45;;;0.35;;
55655;SDS011;41530;52.382;5.270;2022-10-19T10:14:34;1.45;;;0.50;;
55655;SDS011;41530;52.382;5.270;2022-10-19T10:17:18;1.08;;;0.47;;
55655;SDS011;41530;52.382;5.270;2022-10-19T10:22:28;1.52;;;0.60;;
55655;SDS011;41530;52.382;5.270;2022-10-19T10:24:59;1.20;;;0.50;;
55655;SDS011;41530;52.382;5.270;2022-10-19T10:27:34;1.65;;;0.30;;
55655;SDS011;41530;52.382;5.270;2022-10-19T10:30:14;2.92;;;0.50;;
55655;SDS011;41530;52.382;5.270;2022-10-19T10:32:50;0.60;;;0.30;;
55655;SDS011;41530;52.382;5.270;2022-10-19T10:35:35;7.72;;;1.10;;
55655;SDS011;41530;52.382;5.270;2022-10-19T10:38:16;1.08;;;0.50;;
55655;SDS011;41530;52.382;5.270;2022-10-19T10:40:53;3.03;;;0.57;;
55655;SDS011;41530;52.382;5.270;2022-10-19T10:43:38;1.42;;;0.50;;
55655;SDS011;41530;52.382;5.270;2022-10-19T10:46:19;1.90;;;0.50;;
55655;SDS011;41530;52.382;5.270;2022-10-19T10:49:02;1.17;;;0.60;;
55655;SDS011;41530;52.382;5.270;2022-10-19T10:51:43;0.98;;;0.60;;
55655;SDS011;41530;52.382;5.270;2022-10-19T11:05:17;1.80;;;0.45;;
55655;SDS011;41530;52.382;5.270;2022-10-19T11:07:53;1.85;;;0.60;;
55655;SDS011;41530;52.382;5.270;2022-10-19T11:10:27;0.88;;;0.60;;
55655;SDS011;41530;52.382;5.270;2022-10-19T11:13:08;1.52;;;1.00;;
55655;SDS011;41530;52.382;5.270;2022-10-19T11:15:46;5.57;;;2.20;;
55655;SDS011;41530;52.382;5.270;2022-10-19T11:18:22;6.95;;;2.83;;
55655;SDS011;41530;52.382;5.270;2022-10-19T11:20:59;5.15;;;2.10;;
55655;SDS011;41530;52.382;5.270;2022-10-19T11:23:54;5.97;;;2.65;;
55655;SDS011;41530;52.382;5.270;2022-10-19T11:32:34;10.43;;;4.93;;
55655;SDS011;41530;52.382;5.270;2022-10-19T11:35:29;13.48;;;5.68;;
55655;SDS011;41530;52.382;5.270;2022-10-19T11:41:02;11.95;;;5.43;;
55655;SDS011;41530;52.382;5.270;2022-10-19T11:44:09;12.48;;;5.72;;
55655;SDS011;41530;52.382;5.270;2022-10-19T11:49:30;9.10;;;5.20;;
55655;SDS011;41530;52.382;5.270;2022-10-19T11:52:03;9.98;;;5.13;;
55655;SDS011;41530;52.382;5.270;2022-10-19T11:55:03;9.90;;;5.07;;
55655;SDS011;41530;52.382;5.270;2022-10-19T12:01:49;12.60;;;5.25;;
55655;SDS011;41530;52.382;5.270;2022-10-19T12:09:42;9.95;;;5.05;;
55655;SDS011;41530;52.382;5.270;2022-10-19T12:12:30;10.88;;;5.05;;
55655;SDS011;41530;52.382;5.270;2022-10-19T12:18:02;9.60;;;4.53;;
55655;SDS011;41530;52.382;5.270;2022-10-19T12:23:30;8.38;;;4.28;;
55655;SDS011;41530;52.382;5.270;2022-10-19T12:26:00;6.13;;;4.05;;
55655;SDS011;41530;52.382;5.270;2022-10-19T12:28:30;7.75;;;4.28;;
55655;SDS011;41530;52.382;5.270;2022-10-19T12:31:00;12.40;;;4.95;;
55655;SDS011;41530;52.382;5.270;2022-10-19T12:42:19;7.57;;;3.80;;
55655;SDS011;41530;52.382;5.270;2022-10-19T12:53:25;9.13;;;4.30;;
55655;SDS011;41530;52.382;5.270;2022-10-19T13:01:23;11.20;;;3.80;;
55655;SDS011;41530;52.382;5.270;2022-10-19T13:06:57;6.35;;;3.53;;
55655;SDS011;41530;52.382;5.270;2022-10-19T13:27:50;3.95;;;2.30;;
55655;SDS011;41530;52.382;5.270;2022-10-19T13:41:14;6.07;;;2.85;;
55655;SDS011;41530;52.382;5.270;2022-10-19T13:56:07;4.32;;;2.63;;
55655;SDS011;41530;52.382;5.270;2022-10-19T14:10:59;4.30;;;2.42;;
55655;SDS011;41530;52.382;5.270;2022-10-19T14:13:29;4.28;;;2.25;;
55655;SDS011;41530;52.382;5.270;2022-10-19T14:15:57;4.32;;;2.38;;
55655;SDS011;41530;52.382;5.270;2022-10-19T14:18:35;8.25;;;2.28;;
55655;SDS011;41530;52.382;5.270;2022-10-19T14:21:33;3.65;;;2.20;;
55655;SDS011;41530;52.382;5.270;2022-10-19T14:24:23;4.65;;;2.28;;
55655;SDS011;41530;52.382;5.270;2022-10-19T14:27:05;9.95;;;2.58;;
55655;SDS011;41530;52.382;5.270;2022-10-19T14:29:42;4.43;;;2.38;;
55655;SDS011;41530;52.382;5.270;2022-10-19T14:35:47;3.67;;;2.00;;
55655;SDS011;41530;52.382;5.270;2022-10-19T14:38:48;4.25;;;2.03;;
55655;SDS011;41530;52.382;5.270;2022-10-19T14:41:28;5.45;;;2.30;;
55655;SDS011;41530;52.382;5.270;2022-10-19T14:47:00;4.35;;;2.03;;
55655;SDS011;41530;52.382;5.270;2022-10-19T14:49:47;4.53;;;2.42;;
55655;SDS011;41530;52.382;5.270;2022-10-19T14:52:23;3.40;;;1.77;;
55655;SDS011;41530;52.382;5.270;2022-10-19T14:58:09;4.80;;;1.92;;
55655;SDS011;41530;52.382;5.270;2022-10-19T15:01:16;3.65;;;1.77;;
55655;SDS011;41530;52.382;5.270;2022-10-19T15:03:47;4.97;;;1.88;;
55655;SDS011;41530;52.382;5.270;2022-10-19T15:06:20;2.55;;;1.70;;
55655;SDS011;41530;52.382;5.270;2022-10-19T15:08:54;3.08;;;1.88;;
55655;SDS011;41530;52.382;5.270;2022-10-19T15:11:56;2.85;;;1.70;;
55655;SDS011;41530;52.382;5.270;2022-10-19T15:14:42;3.45;;;2.00;;
55655;SDS011;41530;52.382;5.270;2022-10-19T15:19:55;2.20;;;1.60;;
55655;SDS011;41530;52.382;5.270;2022-10-19T15:27:44;3.85;;;1.90;;
55655;SDS011;41530;52.382;5.270;2022-10-19T15:32:51;4.43;;;1.67;;
55655;SDS011;41530;52.382;5.270;2022-10-19T15:38:00;2.65;;;1.40;;
55655;SDS011;41530;52.382;5.270;2022-10-19T15:40:45;2.55;;;1.55;;
55655;SDS011;41530;52.382;5.270;2022-10-19T15:46:26;2.78;;;1.50;;
55655;SDS011;41530;52.382;5.270;2022-10-19T15:51:55;3.42;;;1.92;;
55655;SDS011;41530;52.382;5.270;2022-10-19T15:54:29;2.30;;;1.30;;
55655;SDS011;41530;52.382;5.270;2022-10-19T16:00:49;3.97;;;1.15;;
55655;SDS011;41530;52.382;5.270;2022-10-19T16:03:56;9.27;;;1.80;;
55655;SDS011;41530;52.382;5.270;2022-10-19T16:06:53;4.38;;;1.48;;
55655;SDS011;41530;52.382;5.270;2022-10-19T16:09:20;3.13;;;1.77;;
55655;SDS011;41530;52.382;5.270;2022-10-19T16:14:37;5.15;;;1.80;;
55655;SDS011;41530;52.382;5.270;2022-10-19T16:17:09;4.15;;;1.90;;
55655;SDS011;41530;52.382;5.270;2022-10-19T16:19:41;5.05;;;2.25;;
55655;SDS011;41530;52.382;5.270;2022-10-19T16:22:09;5.53;;;2.28;;
55655;SDS011;41530;52.382;5.270;2022-10-19T16:24:36;6.13;;;2.42;;
55655;SDS011;41530;52.382;5.270;2022-10-19T16:27:03;9.50;;;2.97;;
55655;SDS011;41530;52.382;5.270;2022-10-19T16:29:30;5.13;;;2.20;;
55655;SDS011;41530;52.382;5.270;2022-10-19T16:31:58;7.75;;;2.30;;
55655;SDS011;41530;52.382;5.270;2022-10-19T16:34:24;5.95;;;2.42;;
55655;SDS011;41530;52.382;5.270;2022-10-19T16:36:51;5.00;;;2.78;;
55655;SDS011;41530;52.382;5.270;2022-10-19T16:39:18;5.57;;;2.55;;
55655;SDS011;41530;52.382;5.270;2022-10-19T16:41:45;6.00;;;2.58;;
55655;SDS011;41530;52.382;5.270;2022-10-19T16:44:12;6.25;;;2.50;;
55655;SDS011;41530;52.382;5.270;2022-10-19T16:46:38;6.00;;;2.35;;
55655;SDS011;41530;52.382;5.270;2022-10-19T16:49:05;5.50;;;2.42;;
55655;SDS011;41530;52.382;5.270;2022-10-19T16:51:32;5.35;;;2.40;;
55655;SDS011;41530;52.382;5.270;2022-10-19T16:54:01;6.05;;;2.38;;
55655;SDS011;41530;52.382;5.270;2022-10-19T16:56:29;7.03;;;2.65;;
55655;SDS011;41530;52.382;5.270;2022-10-19T16:59:01;6.70;;;2.60;;
55655;SDS011;41530;52.382;5.270;2022-10-19T17:01:30;4.32;;;2.28;;
55655;SDS011;41530;52.382;5.270;2022-10-19T17:04:00;6.78;;;2.40;;
55655;SDS011;41530;52.382;5.270;2022-10-19T17:06:27;4.68;;;2.10;;
55655;SDS011;41530;52.382;5.270;2022-10-19T17:09:00;7.88;;;2.33;;
55655;SDS011;41530;52.382;5.270;2022-10-19T17:11:46;6.35;;;2.33;;
55655;SDS011;41530;52.382;5.270;2022-10-19T17:14:16;5.22;;;2.20;;
55655;SDS011;41530;52.382;5.270;2022-10-19T17:16:43;5.30;;;2.20;;
55655;SDS011;41530;52.382;5.270;2022-10-19T17:19:10;5.95;;;2.00;;
55655;SDS011;41530;52.382;5.270;2022-10-19T17:21:39;5.75;;;2.17;;
55655;SDS011;41530;52.382;5.270;2022-10-19T17:24:11;3.05;;;1.95;;
55655;SDS011;41530;52.382;5.270;2022-10-19T17:26:45;6.50;;;1.90;;
55655;SDS011;41530;52.382;5.270;2022-10-19T17:29:12;4.72;;;1.65;;
55655;SDS011;41530;52.382;5.270;2022-10-19T17:31:39;3.45;;;2.10;;
55655;SDS011;41530;52.382;5.270;2022-10-19T17:34:07;5.32;;;1.83;;
55655;SDS011;41530;52.382;5.270;2022-10-19T17:36:36;3.97;;;1.55;;
55655;SDS011;41530;52.382;5.270;2022-10-19T17:41:37;4.10;;;1.63;;
55655;SDS011;41530;52.382;5.270;2022-10-19T17:44:04;6.10;;;1.65;;
55655;SDS011;41530;52.382;5.270;2022-10-19T17:46:32;7.72;;;1.83;;
55655;SDS011;41530;52.382;5.270;2022-10-19T17:49:03;3.72;;;1.63;;
55655;SDS011;41530;52.382;5.270;2022-10-19T17:51:47;3.83;;;1.60;;
55655;SDS011;41530;52.382;5.270;2022-10-19T17:54:13;4.85;;;1.90;;
55655;SDS011;41530;52.382;5.270;2022-10-19T17:56:40;3.85;;;1.85;;
55655;SDS011;41530;52.382;5.270;2022-10-19T17:59:10;4.90;;;1.90;;
55655;SDS011;41530;52.382;5.270;2022-10-19T18:01:37;4.72;;;1.95;;
55655;SDS011;41530;52.382;5.270;2022-10-19T18:04:18;3.85;;;1.50;;
55655;SDS011;41530;52.382;5.270;2022-10-19T18:06:46;6.35;;;1.55;;
55655;SDS011;41530;52.382;5.270;2022-10-19T18:09:13;5.63;;;1.83;;
55655;SDS011;41530;52.382;5.270;2022-10-19T18:11:52;3.20;;;2.00;;
55655;SDS011;41530;52.382;5.270;2022-10-19T18:14:18;4.32;;;1.75;;
55655;SDS011;41530;52.382;5.270;2022-10-19T18:16:48;4.50;;;1.65;;
55655;SDS011;41530;52.382;5.270;2022-10-19T18:19:17;3.53;;;1.60;;
55655;SDS011;41530;52.382;5.270;2022-10-19T18:21:44;3.22;;;1.48;;
55655;SDS011;41530;52.382;5.270;2022-10-19T18:24:14;3.67;;;1.63;;
55655;SDS011;41530;52.382;5.270;2022-10-19T18:26:44;3.67;;;1.48;;